createdAt,value
2023-11-12T00:02:10.024Z,5.02
2023-11-12T00:04:44.759Z,5.03
2023-11-12T00:07:16.542Z,5.04
2023-11-12T00:09:48.267Z,5.03
2023-11-12T00:12:20.753Z,5.03
2023-11-12T00:14:52.570Z,5.05
2023-11-12T00:17:25.980Z,5.05
2023-11-12T00:19:57.837Z,5.05
2023-11-12T00:22:30.179Z,5.05
2023-11-12T00:25:02.905Z,5.03
2023-11-12T00:27:34.646Z,5.02
2023-11-12T00:30:07.253Z,5.00
2023-11-12T00:39:53.193Z,5.02
2023-11-12T00:42:25.118Z,4.99
2023-11-12T00:44:56.895Z,5.01
2023-11-12T00:47:28.611Z,5.01
2023-11-12T00:50:00.448Z,5.02
2023-11-12T00:52:32.262Z,5.03
2023-11-12T00:55:04.299Z,5.03
2023-11-12T00:57:39.213Z,5.03
2023-11-12T01:00:11.756Z,5.04
2023-11-12T01:02:43.696Z,5.03
2023-11-12T01:05:15.732Z,5.03
2023-11-12T01:07:47.520Z,5.03
2023-11-12T01:10:19.299Z,5.02
2023-11-12T01:12:51.593Z,5.00
2023-11-12T01:15:24.479Z,4.97
2023-11-12T01:17:57.177Z,4.93
2023-11-12T01:20:29.015Z,4.89
2023-11-12T01:23:00.681Z,4.84
2023-11-12T01:25:34.274Z,4.79
2023-11-12T01:28:05.848Z,4.73
2023-11-12T01:30:38.414Z,4.66
2023-11-12T01:33:11.671Z,4.60
2023-11-12T01:35:43.392Z,4.55
2023-11-12T01:38:15.107Z,4.51
2023-11-12T01:40:46.936Z,4.47
2023-11-12T01:43:20.229Z,4.43
2023-11-12T01:45:51.944Z,4.41
2023-11-12T01:48:24.632Z,4.38
2023-11-12T01:50:56.609Z,4.37
2023-11-12T01:53:29.097Z,4.34
2023-11-12T01:56:01.593Z,4.31
2023-11-12T01:58:33.555Z,4.27
2023-11-12T02:04:20.591Z,4.18
2023-11-12T02:06:57.180Z,4.13
2023-11-12T02:09:32.438Z,4.09
2023-11-12T02:12:09.182Z,4.06
2023-11-12T02:14:40.931Z,4.00
2023-11-12T02:17:12.716Z,3.99
2023-11-12T02:19:48.091Z,3.96
2023-11-12T02:22:22.458Z,3.91
2023-11-12T02:24:58.180Z,3.87
2023-11-12T02:27:45.945Z,3.85
2023-11-12T02:30:22.222Z,3.81
2023-11-12T02:32:54.103Z,3.77
2023-11-12T02:35:33.886Z,3.75
2023-11-12T02:38:05.714Z,3.73
2023-11-12T02:40:40.432Z,3.75
2023-11-12T02:43:12.446Z,3.76
2023-11-12T02:45:47.894Z,3.76
2023-11-12T02:48:22.205Z,3.77
2023-11-12T02:50:55.747Z,3.79
2023-11-12T02:53:29.290Z,3.80
2023-11-12T02:56:02.806Z,3.77
2023-11-12T02:58:37.257Z,3.84
2023-11-12T03:01:11.406Z,3.86
2023-11-12T03:03:50.506Z,3.89
2023-11-12T03:06:24.367Z,3.91
2023-11-12T03:08:58.874Z,3.95
2023-11-12T03:11:30.626Z,3.97
2023-11-12T03:14:05.780Z,3.98
2023-11-12T03:16:42.444Z,3.99
2023-11-12T03:19:14.387Z,3.99
2023-11-12T03:21:54.415Z,4.00
2023-11-12T03:24:38.823Z,3.99
2023-11-12T03:27:20.815Z,3.98
2023-11-12T03:29:52.774Z,3.96
2023-11-12T03:32:35.337Z,3.95
2023-11-12T03:35:12.900Z,3.94
2023-11-12T03:38:04.740Z,3.91
2023-11-12T03:40:36.513Z,3.89
2023-11-12T03:43:14.373Z,3.87
2023-11-12T03:45:51.848Z,3.84
2023-11-12T03:48:39.141Z,3.81
2023-11-12T03:51:17.794Z,3.79
2023-11-12T03:54:00.120Z,3.76
2023-11-12T03:56:33.497Z,3.75
2023-11-12T03:59:05.267Z,3.74
2023-11-12T04:01:41.687Z,3.73
2023-11-12T04:04:24.128Z,3.73
2023-11-12T04:07:02.110Z,3.75
2023-11-12T04:09:37.466Z,3.75
2023-11-12T04:12:38.189Z,3.77
2023-11-12T04:15:19.958Z,3.78
2023-11-12T04:17:56.961Z,3.80
2023-11-12T04:20:34.911Z,3.84
2023-11-12T04:23:07.739Z,3.88
2023-11-12T04:26:05.113Z,3.92
2023-11-12T04:28:56.611Z,3.94
2023-11-12T04:31:41.557Z,3.93
2023-11-12T04:34:21.222Z,3.93
2023-11-12T04:36:53.110Z,3.89
2023-11-12T04:39:55.759Z,3.90
2023-11-12T04:42:36.369Z,3.87
2023-11-12T04:45:13.217Z,3.81
2023-11-12T04:47:45.166Z,3.77
2023-11-12T04:50:21.387Z,3.82
2023-11-12T04:53:00.427Z,3.80
2023-11-12T04:55:37.299Z,3.79
2023-11-12T04:58:10.215Z,3.79
2023-11-12T05:00:45.918Z,3.80
2023-11-12T05:03:17.911Z,3.78
2023-11-12T05:05:53.002Z,3.75
2023-11-12T05:08:30.011Z,3.73
2023-11-12T05:11:06.904Z,3.70
2023-11-12T05:13:52.168Z,3.69
2023-11-12T05:16:28.652Z,3.69
2023-11-12T05:19:07.959Z,3.67
2023-11-12T05:21:46.912Z,3.65
2023-11-12T05:24:26.758Z,3.64
2023-11-12T05:27:03.799Z,3.64
2023-11-12T05:29:37.700Z,3.63
2023-11-12T05:32:15.780Z,3.63
2023-11-12T05:34:58.569Z,3.63
2023-11-12T05:37:35.141Z,3.64
2023-11-12T05:40:13.577Z,3.65
2023-11-12T05:42:49.674Z,3.63
2023-11-12T05:45:21.476Z,3.61
2023-11-12T05:47:59.137Z,3.59
2023-11-12T05:50:33.873Z,3.58
2023-11-12T05:53:08.135Z,3.57
2023-11-12T05:55:42.160Z,3.56
2023-11-12T05:58:14.175Z,3.52
2023-11-12T06:00:54.842Z,3.56
2023-11-12T06:03:37.995Z,3.58
2023-11-12T06:06:13.049Z,3.59
2023-11-12T06:08:44.866Z,3.60
2023-11-12T06:11:22.175Z,3.65
2023-11-12T06:13:54.822Z,3.73
2023-11-12T06:16:26.525Z,3.72
2023-11-12T06:19:03.996Z,3.77
2023-11-12T06:21:38.546Z,3.76
2023-11-12T06:24:10.551Z,3.77
2023-11-12T06:26:46.844Z,3.81
2023-11-12T06:29:25.201Z,3.84
2023-11-12T06:32:01.418Z,3.89
2023-11-12T06:34:42.573Z,3.93
2023-11-12T06:37:14.248Z,3.96
2023-11-12T06:39:47.948Z,4.01
2023-11-12T06:42:19.708Z,4.04
2023-11-12T06:44:56.100Z,4.08
2023-11-12T06:47:27.885Z,4.08
2023-11-12T06:50:07.248Z,4.15
2023-11-12T06:52:51.406Z,4.18
2023-11-12T06:55:34.217Z,4.20
2023-11-12T06:58:08.135Z,4.23
2023-11-12T07:00:43.031Z,4.27
2023-11-12T07:03:20.345Z,4.31
2023-11-12T07:05:56.752Z,4.35
2023-11-12T07:08:34.070Z,4.39
2023-11-12T07:11:10.750Z,4.43
2023-11-12T07:13:44.314Z,4.47
2023-11-12T07:16:19.700Z,4.51
2023-11-12T07:19:14.983Z,4.55
2023-11-12T07:22:06.946Z,4.58
2023-11-12T07:25:01.265Z,4.62
2023-11-12T07:27:46.318Z,4.68
2023-11-12T07:30:18.658Z,4.76
2023-11-12T07:32:50.666Z,4.83
2023-11-12T07:35:22.681Z,4.88
2023-11-12T07:37:54.395Z,4.94
2023-11-12T07:40:28.240Z,4.98
2023-11-12T07:42:59.981Z,5.03
2023-11-12T07:45:38.144Z,5.07
2023-11-12T07:48:12.705Z,5.12
2023-11-12T07:50:44.446Z,5.17
2023-11-12T07:53:16.150Z,5.20
2023-11-12T07:55:47.930Z,5.27
2023-11-12T07:58:20.578Z,5.34
2023-11-12T08:00:52.383Z,5.38
2023-11-12T08:03:24.198Z,5.46
2023-11-12T08:05:56.006Z,5.53
2023-11-12T08:08:27.902Z,5.58
2023-11-12T08:11:02.581Z,5.68
2023-11-12T08:13:34.249Z,5.75
2023-11-12T08:16:06.621Z,5.81
2023-11-12T08:18:38.603Z,5.91
2023-11-12T08:21:11.526Z,5.99
2023-11-12T08:23:43.361Z,6.09
2023-11-12T08:26:16.084Z,6.21
2023-11-12T08:28:48.735Z,6.34
2023-11-12T08:31:20.467Z,6.43
2023-11-12T08:33:53.006Z,6.51
2023-11-12T08:36:24.830Z,6.60
2023-11-12T08:38:57.250Z,6.66
2023-11-12T08:41:29.983Z,6.73
2023-11-12T08:44:01.674Z,6.79
2023-11-12T08:46:33.446Z,6.80
2023-11-12T08:49:07.497Z,6.80
2023-11-12T08:51:39.345Z,6.82
2023-11-12T08:54:11.519Z,6.83
2023-11-12T08:56:43.273Z,6.87
2023-11-12T08:59:15.069Z,6.88
2023-11-12T09:01:47.708Z,6.90
2023-11-12T09:04:19.585Z,6.86
2023-11-12T09:06:51.455Z,6.88
2023-11-12T09:09:23.172Z,6.85
2023-11-12T09:11:57.604Z,6.80
2023-11-12T09:14:29.920Z,6.75
2023-11-12T09:17:02.346Z,6.76
2023-11-12T09:19:34.064Z,6.73
2023-11-12T09:22:05.891Z,6.70
2023-11-12T09:24:43.023Z,6.69
2023-11-12T09:27:19.953Z,6.68
2023-11-12T09:29:52.852Z,6.69
2023-11-12T09:32:24.734Z,6.73
2023-11-12T09:34:56.445Z,6.75
2023-11-12T09:37:28.249Z,6.77
2023-11-12T09:40:00.855Z,6.79
2023-11-12T09:42:32.906Z,6.79
2023-11-12T09:45:07.036Z,6.78
2023-11-12T09:47:57.801Z,6.76
2023-11-12T09:50:31.868Z,6.76
2023-11-12T09:53:06.965Z,6.78
2023-11-12T09:55:38.754Z,6.80
2023-11-12T09:58:10.413Z,6.85
2023-11-12T10:00:44.667Z,6.92
2023-11-12T10:03:16.546Z,6.97
2023-11-12T10:05:48.954Z,6.98
2023-11-12T10:08:22.286Z,7.02
2023-11-12T10:10:54.011Z,7.09
2023-11-12T10:13:36.900Z,7.13
2023-11-12T10:16:31.339Z,7.17
2023-11-12T10:19:15.228Z,7.27
2023-11-12T10:21:55.557Z,7.34
2023-11-12T10:24:32.104Z,7.43
2023-11-12T10:27:06.482Z,7.53
2023-11-12T10:29:38.800Z,7.63
2023-11-12T10:32:26.023Z,7.70
2023-11-12T10:34:57.839Z,7.75
2023-11-12T10:37:29.543Z,7.76
2023-11-12T10:40:08.277Z,7.76
2023-11-12T10:42:40.982Z,7.77
2023-11-12T10:45:17.642Z,7.80
2023-11-12T10:47:52.522Z,7.83
2023-11-12T10:50:29.506Z,7.86
2023-11-12T10:53:01.720Z,7.89
2023-11-12T10:55:35.009Z,7.94
2023-11-12T10:58:09.745Z,7.99
2023-11-12T11:00:42.032Z,8.03
2023-11-12T11:03:14.149Z,8.08
2023-11-12T11:05:46.054Z,8.08
2023-11-12T11:08:18.953Z,8.14
2023-11-12T11:10:52.371Z,8.14
2023-11-12T11:13:41.747Z,8.16
2023-11-12T11:16:49.793Z,8.21
2023-11-12T11:19:44.517Z,8.16
2023-11-12T11:22:24.986Z,8.06
2023-11-12T11:24:58.085Z,7.97
2023-11-12T11:27:31.033Z,7.92
2023-11-12T11:30:13.558Z,7.87
2023-11-12T11:32:56.349Z,7.91
2023-11-12T11:35:30.406Z,7.95
2023-11-12T11:38:12.848Z,8.01
2023-11-12T11:40:59.668Z,8.05
2023-11-12T11:43:33.275Z,8.05
2023-11-12T11:46:11.637Z,8.05
2023-11-12T11:48:43.582Z,8.05
2023-11-12T11:51:38.651Z,8.03
2023-11-12T11:54:17.934Z,8.05
2023-11-12T11:56:51.378Z,8.06
2023-11-12T11:59:24.315Z,8.08
2023-11-12T12:02:00.654Z,8.09
2023-11-12T12:04:34.069Z,8.09
2023-11-12T12:07:06.186Z,8.19
2023-11-12T12:09:38.309Z,8.56
2023-11-12T12:12:10.014Z,8.97
2023-11-12T12:14:42.446Z,9.31
2023-11-12T12:17:15.074Z,9.58
2023-11-12T12:19:52.588Z,9.72
2023-11-12T12:22:28.811Z,9.85
2023-11-12T12:25:02.192Z,9.98
2023-11-12T12:27:34.044Z,10.01
2023-11-12T12:30:09.275Z,10.04
2023-11-12T12:32:41.041Z,10.00
2023-11-12T12:35:22.133Z,9.92
2023-11-12T12:38:06.937Z,9.97
2023-11-12T12:40:38.883Z,10.00
2023-11-12T12:43:12.185Z,9.95
2023-11-12T12:45:57.670Z,9.83
2023-11-12T12:48:31.202Z,9.85
2023-11-12T12:51:04.404Z,9.91
2023-11-12T12:53:36.077Z,9.94
2023-11-12T12:56:08.076Z,9.96
2023-11-12T12:58:39.925Z,9.97
2023-11-12T13:01:12.520Z,9.92
2023-11-12T13:03:47.987Z,9.85
2023-11-12T13:06:20.400Z,9.75
2023-11-12T13:08:52.273Z,9.57
2023-11-12T13:11:27.180Z,9.38
2023-11-12T13:13:58.965Z,9.24
2023-11-12T13:16:32.806Z,9.15
2023-11-12T13:19:05.915Z,9.08
2023-11-12T13:21:51.665Z,8.98
2023-11-12T13:24:30.630Z,8.87
2023-11-12T13:27:02.662Z,8.74
2023-11-12T13:29:34.426Z,8.64
2023-11-12T13:32:09.231Z,8.52
2023-11-12T13:34:45.155Z,8.39
2023-11-12T13:37:17.075Z,8.27
2023-11-12T13:39:50.323Z,8.17
2023-11-12T13:42:22.663Z,8.10
2023-11-12T13:44:55.084Z,8.01
2023-11-12T13:47:46.867Z,7.93
2023-11-12T13:50:26.494Z,7.90
2023-11-12T13:53:11.050Z,7.88
2023-11-12T13:55:44.825Z,7.91
2023-11-12T13:58:17.633Z,7.97
2023-11-12T14:00:52.862Z,8.02
2023-11-12T14:03:28.720Z,8.04
2023-11-12T14:06:01.525Z,8.07
2023-11-12T14:08:33.315Z,8.05
2023-11-12T14:11:12.945Z,7.99
2023-11-12T14:13:47.615Z,7.90
2023-11-12T14:16:24.725Z,7.78
2023-11-12T14:19:13.695Z,7.66
2023-11-12T14:21:51.010Z,7.56
2023-11-12T14:24:27.566Z,7.47
2023-11-12T14:27:02.302Z,7.40
2023-11-12T14:29:39.172Z,7.35
2023-11-12T14:32:13.808Z,7.30
2023-11-12T14:34:59.973Z,7.28
2023-11-12T14:37:49.921Z,7.28
2023-11-12T14:40:32.485Z,7.26
2023-11-12T14:43:08.380Z,7.26
2023-11-12T14:45:45.878Z,7.24
2023-11-12T14:48:20.821Z,7.23
2023-11-12T14:51:09.290Z,7.19
2023-11-12T14:53:45.864Z,7.14
2023-11-12T14:56:21.759Z,7.08
2023-11-12T14:58:56.036Z,7.02
2023-11-12T15:01:28.152Z,6.95
2023-11-12T15:04:00.627Z,6.88
2023-11-12T15:06:32.367Z,6.83
2023-11-12T15:09:08.829Z,6.76
2023-11-12T15:11:41.955Z,6.69
2023-11-12T15:14:13.777Z,6.62
2023-11-12T15:16:45.591Z,6.55
2023-11-12T15:19:17.410Z,6.48
2023-11-12T15:21:49.298Z,6.44
2023-11-12T15:24:24.041Z,6.42
2023-11-12T15:26:55.766Z,6.41
2023-11-12T15:29:27.646Z,6.40
2023-11-12T15:31:59.377Z,6.39
2023-11-12T15:34:31.124Z,6.40
2023-11-12T15:37:02.786Z,6.40
2023-11-12T15:39:34.615Z,6.42
2023-11-12T15:42:09.221Z,6.38
2023-11-12T15:44:41.129Z,6.44
2023-11-12T15:47:14.371Z,6.45
2023-11-12T15:49:48.089Z,6.42
2023-11-12T15:52:21.715Z,6.49
2023-11-12T15:54:55.447Z,6.49
2023-11-12T15:57:27.486Z,6.51
2023-11-12T15:59:59.708Z,6.50
2023-11-12T16:02:31.478Z,6.46
2023-11-12T16:05:04.151Z,6.43
2023-11-12T16:07:36.046Z,6.39
2023-11-12T16:10:10.082Z,6.34
2023-11-12T16:12:42.526Z,6.26
2023-11-12T16:15:16.980Z,6.22
2023-11-12T16:17:50.587Z,6.16
2023-11-12T16:20:22.525Z,6.09
2023-11-12T16:22:54.333Z,6.01
2023-11-12T16:25:26.216Z,5.94
2023-11-12T16:27:57.920Z,5.84
2023-11-12T16:30:30.003Z,5.77
2023-11-12T16:33:01.699Z,5.69
2023-11-12T16:35:33.673Z,5.64
2023-11-12T16:38:08.345Z,5.61
2023-11-12T16:40:40.632Z,5.57
2023-11-12T16:43:13.784Z,5.54
2023-11-12T16:45:45.739Z,5.51
2023-11-12T16:48:17.659Z,5.48
2023-11-12T16:50:49.322Z,5.47
2023-11-12T16:53:22.073Z,5.45
2023-11-12T16:55:55.693Z,5.41
2023-11-12T16:58:27.405Z,5.37
2023-11-12T17:00:59.142Z,5.35
2023-11-12T17:03:31.360Z,5.31
2023-11-12T17:06:03.424Z,5.28
2023-11-12T17:08:35.123Z,5.25
2023-11-12T17:11:07.046Z,5.21
2023-11-12T17:13:38.721Z,5.17
2023-11-12T17:16:11.021Z,5.12
2023-11-12T17:18:42.745Z,5.09
2023-11-12T17:21:14.487Z,5.06
2023-11-12T17:23:48.856Z,5.04
2023-11-12T17:26:20.555Z,5.02
2023-11-12T17:28:52.283Z,5.00
2023-11-12T17:31:23.971Z,4.98
2023-11-12T17:33:58.513Z,4.96
2023-11-12T17:36:30.431Z,4.92
2023-11-12T17:39:02.135Z,4.89
2023-11-12T17:41:34.553Z,4.88
2023-11-12T17:44:08.642Z,4.85
2023-11-12T17:46:40.544Z,4.83
2023-11-12T17:49:13.051Z,4.79
2023-11-12T17:51:44.898Z,4.74
2023-11-12T17:54:17.380Z,4.71
2023-11-12T17:56:49.101Z,4.67
2023-11-12T17:59:21.752Z,4.64
2023-11-12T18:01:53.810Z,4.61
2023-11-12T18:04:25.647Z,4.59
2023-11-12T18:06:58.776Z,4.56
2023-11-12T18:09:30.429Z,4.53
2023-11-12T18:12:02.071Z,4.50
2023-11-12T18:14:34.424Z,4.48
2023-11-12T18:17:06.159Z,4.46
2023-11-12T18:19:37.825Z,4.45
2023-11-12T18:22:11.013Z,4.44
2023-11-12T18:24:45.060Z,4.44
2023-11-12T18:27:16.700Z,4.45
2023-11-12T18:29:48.555Z,4.46
2023-11-12T18:32:20.341Z,4.47
2023-11-12T18:34:51.997Z,4.49
2023-11-12T18:37:24.465Z,4.50
2023-11-12T18:39:56.173Z,4.47
2023-11-12T18:42:28.255Z,4.50
2023-11-12T18:44:59.903Z,4.49
2023-11-12T18:47:32.491Z,4.45
2023-11-12T18:50:04.803Z,4.42
2023-11-12T18:52:36.516Z,4.38
2023-11-12T18:55:09.503Z,4.35
2023-11-12T18:57:42.627Z,4.31
2023-11-12T19:00:15.674Z,4.28
2023-11-12T19:02:48.200Z,4.25
2023-11-12T19:05:20.009Z,4.21
2023-11-12T19:07:51.701Z,4.20
2023-11-12T19:10:24.095Z,4.19
2023-11-12T19:12:55.983Z,4.17
2023-11-12T19:15:27.718Z,4.15
2023-11-12T19:17:59.471Z,4.11
2023-11-12T19:20:32.293Z,4.09
2023-11-12T19:23:04.470Z,4.09
2023-11-12T19:25:40.245Z,4.07
2023-11-12T19:28:12.112Z,4.08
2023-11-12T19:30:43.989Z,4.07
2023-11-12T19:33:15.874Z,4.05
2023-11-12T19:35:47.651Z,4.03
2023-11-12T19:38:19.318Z,4.01
2023-11-12T19:40:52.932Z,3.99
2023-11-12T19:43:25.506Z,3.97
2023-11-12T19:45:57.211Z,3.95
2023-11-12T19:48:28.875Z,3.97
2023-11-12T19:51:00.829Z,3.96
2023-11-12T19:53:32.514Z,4.02
2023-11-12T19:56:04.868Z,4.02
2023-11-12T19:58:37.845Z,4.03
2023-11-12T20:01:09.647Z,4.04
2023-11-12T20:03:42.075Z,4.05
2023-11-12T20:06:14.292Z,4.08
2023-11-12T20:08:45.960Z,4.08
2023-11-12T20:11:19.793Z,4.09
2023-11-12T20:13:53.848Z,4.07
2023-11-12T20:16:25.555Z,4.09
2023-11-12T20:18:57.389Z,4.11
2023-11-12T20:21:29.286Z,4.14
2023-11-12T20:24:00.933Z,4.17
2023-11-12T20:26:33.041Z,4.22
2023-11-12T20:29:04.668Z,4.27
2023-11-12T20:31:36.475Z,4.30
2023-11-12T20:34:11.518Z,4.29
2023-11-12T20:36:43.305Z,4.25
2023-11-12T20:39:17.850Z,4.26
2023-11-12T20:41:52.032Z,4.24
2023-11-12T20:44:25.064Z,4.23
2023-11-12T20:46:57.007Z,4.22
2023-11-12T20:49:28.757Z,4.21
2023-11-12T20:52:00.674Z,4.15
2023-11-12T20:54:33.206Z,4.20
2023-11-12T20:57:07.419Z,4.23
2023-11-12T20:59:39.465Z,4.26
2023-11-12T21:02:18.848Z,4.29
2023-11-12T21:04:57.103Z,4.31
2023-11-12T21:07:29.707Z,4.36
2023-11-12T21:10:01.570Z,4.39
2023-11-12T21:12:33.432Z,4.41
2023-11-12T21:15:07.589Z,4.44
2023-11-12T21:17:46.868Z,4.48
2023-11-12T21:20:28.485Z,4.51
2023-11-12T21:23:00.231Z,4.55
2023-11-12T21:25:35.022Z,4.58
2023-11-12T21:28:25.193Z,4.61
2023-11-12T21:31:18.056Z,4.62
2023-11-12T21:33:55.555Z,4.63
2023-11-12T21:36:47.615Z,4.62
2023-11-12T21:39:39.802Z,4.62
2023-11-12T21:42:52.665Z,4.60
2023-11-12T21:45:29.464Z,4.60
2023-11-12T21:48:04.810Z,4.60
2023-11-12T21:50:40.419Z,4.60
2023-11-12T21:53:12.264Z,4.60
2023-11-12T21:55:46.085Z,4.60
2023-11-12T21:58:19.141Z,4.60
2023-11-12T22:01:02.047Z,4.61
2023-11-12T22:04:09.763Z,4.61
2023-11-12T22:06:51.380Z,4.62
2023-11-12T22:09:31.073Z,4.63
2023-11-12T22:12:06.013Z,4.64
2023-11-12T22:14:41.584Z,4.64
2023-11-12T22:17:13.526Z,4.64
2023-11-12T22:19:45.318Z,4.63
2023-11-12T22:22:17.135Z,4.63
2023-11-12T22:24:56.051Z,4.63
2023-11-12T22:27:34.561Z,4.63
2023-11-12T22:30:09.084Z,4.64
2023-11-12T22:32:50.814Z,4.66
2023-11-12T22:35:23.644Z,4.67
2023-11-12T22:37:55.445Z,4.69
2023-11-12T22:40:28.265Z,4.71
2023-11-12T22:43:01.173Z,4.73
2023-11-12T22:45:43.583Z,4.73
2023-11-12T22:48:15.311Z,4.74
2023-11-12T22:50:47.148Z,4.73
2023-11-12T22:53:28.046Z,4.70
2023-11-12T22:56:00.532Z,4.68
2023-11-12T22:58:32.550Z,4.66
2023-11-12T23:01:26.899Z,4.63
2023-11-12T23:03:58.724Z,4.61
2023-11-12T23:06:50.597Z,4.59
2023-11-12T23:09:30.025Z,4.58
2023-11-12T23:12:04.441Z,4.58
2023-11-12T23:14:42.738Z,4.56
2023-11-12T23:17:36.610Z,4.56
2023-11-12T23:20:12.228Z,4.55
2023-11-12T23:22:45.533Z,4.53
2023-11-12T23:25:37.173Z,4.53
2023-11-12T23:28:11.081Z,4.50
2023-11-12T23:31:03.414Z,4.52
2023-11-12T23:33:39.149Z,4.49
2023-11-12T23:36:19.371Z,4.51
2023-11-12T23:38:51.743Z,4.50
2023-11-12T23:41:29.283Z,4.48
2023-11-12T23:44:01.504Z,4.46
2023-11-12T23:46:34.272Z,4.42
2023-11-12T23:49:14.921Z,4.40
2023-11-12T23:51:48.584Z,4.37
2023-11-12T23:54:20.333Z,4.36
2023-11-12T23:57:12.875Z,4.30
2023-11-12T23:59:47.787Z,4.33
